2001 MISSING (2001267N17070)


On this page: IBTrACS data - Map and Plots - Positions - Intensities - Original source data

Summary

Start Sep 24
End Sep 28
Basin NI
LMI 35 kt
Sources jtwc_io
newdelhi
In WMO? Yes
Previous storm 2001 TWO-C (EP)
Previous in basin 2001 MISSING (NI)
Concurrent storms 2001 FRANCISCO (WP)
2001 JULIETTE (EP)
2001 LEKIMA (WP)
2001 KIKO (EP)
2001 HUMBERTO (NA)
2001 TWO-C (EP)
2001 MISSING (NI)
Next in basin Missing
Next storm 2001 LORENA (EP)

top of page IBTrACS Data: File Access

top of page HURSAT Data: File Access

Image of storm

top of page Plots:

Map of storm track will not appear if FTP is down
Time series of cyclone Maximum Sustained Wind will not appear if FTP is down
Time series of cyclone Minimum Central Pressure will not appear if FTP is down

top of page Track Data:Position

jtwc_io newdelhi
Date Lat Lon Lat Lon
2001-09-24 00:00:00 16.6 69.8
2001-09-24 06:00:00 16.7 69.5
2001-09-24 12:00:00 16.8 69.2 17.0 69.5
2001-09-24 18:00:00 16.8 68.9 17.0 69.0
2001-09-25 00:00:00 16.9 68.7 17.0 69.0
2001-09-25 06:00:00 17.1 68.4 17.0 68.0
2001-09-25 12:00:00 17.3 68.1 17.0 68.0
2001-09-25 18:00:00 17.5 67.7 17.0 68.0
2001-09-26 00:00:00 17.8 67.2 17.0 68.0
2001-09-26 06:00:00 18.2 66.6 17.5 67.0
2001-09-26 12:00:00 18.5 65.9 18.3 66.0
2001-09-26 18:00:00 18.7 65.1 18.5 65.5
2001-09-27 00:00:00 18.8 64.3 18.5 65.0
2001-09-27 06:00:00 18.9 63.6 18.5 64.0
2001-09-27 12:00:00 19.0 63.0 18.5 63.5
2001-09-27 18:00:00 19.1 62.5 18.5 63.0
2001-09-28 00:00:00 19.2 62.0 18.5 62.0
2001-09-28 06:00:00 19.2 61.5
2001-09-28 12:00:00 19.4 61.1

top of pageTrack Data:Intensity

jtwc_io newdelhi
Date Wind Pres Wind Pres
2001-09-24 00:00:00 25. 1002.
2001-09-24 06:00:00 25. 1002.
2001-09-24 12:00:00 25. 1002. 25. 1006.
2001-09-24 18:00:00 25. 1003. 30. 1004.
2001-09-25 00:00:00 30. 1000. 30. 1004.
2001-09-25 06:00:00 30. 1000. 30. 1000.
2001-09-25 12:00:00 25. 1002. 35. 1000.
2001-09-25 18:00:00 30. 35. 1000.
2001-09-26 00:00:00 30. 35. 1000.
2001-09-26 06:00:00 35. 997. 35. 1000.
2001-09-26 12:00:00 35. 997. 35. 1000.
2001-09-26 18:00:00 35. 997. 35. 1000.
2001-09-27 00:00:00 35. 997. 35. 1000.
2001-09-27 06:00:00 30. 1000. 35. 1004.
2001-09-27 12:00:00 30. 1000. 30. 1006.
2001-09-27 18:00:00 30. 1000. 30. 1006.
2001-09-28 00:00:00 20. 1004. 25. 1008.
2001-09-28 06:00:00 20. 1004.
2001-09-28 12:00:00 20. 1004.

top of page Links to source data

Source Source file Format
jtwc_io bio022001.txt ATCF
newdelhi New_Delhi_Tropical_Cyclone_Track_and_Intensity_Current.csv:Line=1728 New Delhi CSV file (from Excel file)